createdAt,value
2023-04-27T00:00:39.392Z,7.77
2023-04-27T00:01:39.490Z,7.89
2023-04-27T00:02:39.570Z,7.85
2023-04-27T00:03:39.552Z,7.87
2023-04-27T00:04:39.687Z,7.93
2023-04-27T00:05:39.737Z,8.02
2023-04-27T00:06:39.379Z,8.10
2023-04-27T00:07:39.376Z,8.20
2023-04-27T00:08:40.200Z,8.30
2023-04-27T00:09:39.321Z,8.25
2023-04-27T00:10:39.319Z,8.35
2023-04-27T00:11:39.377Z,8.07
2023-04-27T00:12:39.336Z,8.07
2023-04-27T00:13:39.341Z,8.10
2023-04-27T00:14:39.285Z,8.12
2023-04-27T00:15:39.306Z,8.20
2023-04-27T00:16:40.315Z,8.22
2023-04-27T00:17:39.356Z,8.21
2023-04-27T00:18:39.269Z,8.02
2023-04-27T00:19:39.278Z,8.03
2023-04-27T00:20:39.270Z,8.07
2023-04-27T00:21:39.261Z,7.96
2023-04-27T00:22:40.239Z,7.85
2023-04-27T00:23:39.241Z,7.84
2023-04-27T00:24:39.270Z,7.97
2023-04-27T00:25:39.231Z,8.00
2023-04-27T00:26:39.258Z,8.20
2023-04-27T00:27:39.234Z,8.22
2023-04-27T00:28:39.206Z,8.28
2023-04-27T00:29:39.286Z,8.35
2023-04-27T00:30:39.181Z,8.29
2023-04-27T00:31:39.196Z,8.25
2023-04-27T00:32:39.212Z,8.21
2023-04-27T00:33:39.196Z,8.12
2023-04-27T00:34:39.167Z,8.17
2023-04-27T00:35:39.160Z,8.20
2023-04-27T00:36:39.162Z,8.33
2023-04-27T00:37:39.203Z,8.32
2023-04-27T00:38:39.127Z,8.36
2023-04-27T00:39:39.158Z,8.45
2023-04-27T00:40:39.132Z,8.50
2023-04-27T00:41:39.127Z,8.50
2023-04-27T00:42:39.136Z,8.44
2023-04-27T00:43:39.124Z,8.40
2023-04-27T00:44:39.930Z,8.48
2023-04-27T00:45:40.168Z,8.58
2023-04-27T00:46:39.123Z,8.62
2023-04-27T00:47:39.117Z,8.72
2023-04-27T00:48:39.078Z,8.68
2023-04-27T00:49:39.085Z,8.69
2023-04-27T00:50:39.110Z,8.73
2023-04-27T00:51:39.090Z,8.68
2023-04-27T00:52:39.052Z,8.62
2023-04-27T00:53:39.085Z,8.79
2023-04-27T00:54:39.033Z,8.83
2023-04-27T00:55:39.055Z,8.83
2023-04-27T00:56:39.044Z,8.69
2023-04-27T00:57:39.095Z,8.66
2023-04-27T00:58:39.032Z,8.62
2023-04-27T00:59:39.029Z,8.60
2023-04-27T01:00:39.027Z,8.50
2023-04-27T01:01:39.064Z,8.53
2023-04-27T01:02:39.336Z,8.37
2023-04-27T01:03:39.238Z,8.21
2023-04-27T01:04:39.070Z,8.29
2023-04-27T01:05:38.981Z,8.33
2023-04-27T01:06:38.973Z,8.42
2023-04-27T01:07:39.011Z,8.39
2023-04-27T01:08:39.014Z,8.50
2023-04-27T01:09:38.961Z,8.58
2023-04-27T01:10:38.952Z,8.40
2023-04-27T01:11:38.970Z,8.47
2023-04-27T01:12:38.969Z,8.36
2023-04-27T01:13:38.951Z,8.22
2023-04-27T01:14:38.934Z,8.21
2023-04-27T01:15:38.936Z,8.11
2023-04-27T01:16:38.960Z,8.15
2023-04-27T01:17:38.973Z,8.17
2023-04-27T01:18:38.889Z,8.14
2023-04-27T01:19:38.895Z,8.20
2023-04-27T01:20:39.080Z,8.17
2023-04-27T01:21:38.890Z,8.30
2023-04-27T01:22:38.871Z,8.32
2023-04-27T01:23:38.878Z,8.40
2023-04-27T01:24:38.858Z,8.37
2023-04-27T01:25:38.892Z,8.40
2023-04-27T01:26:38.888Z,8.33
2023-04-27T01:27:38.837Z,8.33
2023-04-27T01:28:38.889Z,8.30
2023-04-27T01:29:38.815Z,8.36
2023-04-27T01:30:38.829Z,8.28
2023-04-27T01:31:38.890Z,8.25
2023-04-27T01:32:38.884Z,8.21
2023-04-27T01:33:39.825Z,8.08
2023-04-27T01:34:38.806Z,8.15
2023-04-27T01:35:38.781Z,8.11
2023-04-27T01:36:38.789Z,8.07
2023-04-27T01:37:38.790Z,8.10
2023-04-27T01:38:38.795Z,8.12
2023-04-27T01:39:38.808Z,8.10
2023-04-27T01:40:38.746Z,7.99
2023-04-27T01:41:38.762Z,8.00
2023-04-27T01:42:38.754Z,8.10
2023-04-27T01:43:38.741Z,8.17
2023-04-27T01:44:38.769Z,8.11
2023-04-27T01:45:38.754Z,8.12
2023-04-27T01:46:38.814Z,8.11
2023-04-27T01:47:38.759Z,8.21
2023-04-27T01:48:38.776Z,8.03
2023-04-27T01:49:38.744Z,7.96
2023-04-27T01:50:38.724Z,8.04
2023-04-27T01:51:38.696Z,7.90
2023-04-27T01:52:38.704Z,7.93
2023-04-27T01:53:38.754Z,7.90
2023-04-27T01:54:38.698Z,7.97
2023-04-27T01:55:38.683Z,7.99
2023-04-27T01:56:38.662Z,7.94
2023-04-27T01:57:38.705Z,7.77
2023-04-27T01:58:38.738Z,7.85
2023-04-27T01:59:38.658Z,7.89
2023-04-27T02:00:38.623Z,7.97
2023-04-27T02:01:38.742Z,7.93
2023-04-27T02:02:38.728Z,7.90
2023-04-27T02:03:38.860Z,7.81
2023-04-27T02:04:38.775Z,7.79
2023-04-27T02:05:38.600Z,7.69
2023-04-27T02:06:38.638Z,7.72
2023-04-27T02:07:38.613Z,7.56
2023-04-27T02:08:38.608Z,7.53
2023-04-27T02:09:38.623Z,7.47
2023-04-27T02:10:38.589Z,7.52
2023-04-27T02:11:38.597Z,7.45
2023-04-27T02:12:38.563Z,7.56
2023-04-27T02:13:38.603Z,7.59
2023-04-27T02:14:38.547Z,7.69
2023-04-27T02:15:38.552Z,7.55
2023-04-27T02:16:38.606Z,7.62
2023-04-27T02:17:38.612Z,7.62
2023-04-27T02:18:38.627Z,7.78
2023-04-27T02:19:39.526Z,7.78
2023-04-27T02:20:38.544Z,7.82
2023-04-27T02:21:38.507Z,7.93
2023-04-27T02:22:38.534Z,7.96
2023-04-27T02:23:38.561Z,8.11
2023-04-27T02:24:38.494Z,8.15
2023-04-27T02:25:38.555Z,8.15
2023-04-27T02:26:38.547Z,8.10
2023-04-27T02:27:38.531Z,8.11
2023-04-27T02:28:38.506Z,8.22
2023-04-27T02:29:38.517Z,8.26
2023-04-27T02:30:38.444Z,8.33
2023-04-27T02:31:38.489Z,8.28
2023-04-27T02:32:38.495Z,8.21
2023-04-27T02:33:38.467Z,8.08
2023-04-27T02:34:38.430Z,8.03
2023-04-27T02:35:38.477Z,8.02
2023-04-27T02:36:38.437Z,7.93
2023-04-27T02:37:38.433Z,7.67
2023-04-27T02:38:38.450Z,7.50
2023-04-27T02:39:38.462Z,7.40
2023-04-27T02:40:38.397Z,7.42
2023-04-27T02:41:38.397Z,7.27
2023-04-27T02:42:38.397Z,7.34
2023-04-27T02:43:38.389Z,7.17
2023-04-27T02:44:38.380Z,7.05
2023-04-27T02:45:38.440Z,7.22
2023-04-27T02:46:38.411Z,7.23
2023-04-27T02:47:38.386Z,7.31
2023-04-27T02:48:38.390Z,7.35
2023-04-27T02:49:38.355Z,7.38
2023-04-27T02:50:38.411Z,7.41
2023-04-27T02:51:38.352Z,7.32
2023-04-27T02:52:38.316Z,7.31
2023-04-27T02:53:38.313Z,7.23
2023-04-27T02:54:38.336Z,7.17
2023-04-27T02:55:38.308Z,7.09
2023-04-27T02:56:38.332Z,7.29
2023-04-27T02:57:38.306Z,7.41
2023-04-27T02:58:38.309Z,7.32
2023-04-27T02:59:38.354Z,7.41
2023-04-27T03:00:38.266Z,7.41
2023-04-27T03:01:38.398Z,7.52
2023-04-27T03:02:38.530Z,7.38
2023-04-27T03:03:38.363Z,7.31
2023-04-27T03:04:38.378Z,7.40
2023-04-27T03:05:38.225Z,7.37
2023-04-27T03:06:38.247Z,7.37
2023-04-27T03:07:38.275Z,7.45
2023-04-27T03:08:38.219Z,7.44
2023-04-27T03:09:38.205Z,7.55
2023-04-27T03:10:38.214Z,7.56
2023-04-27T03:11:38.225Z,7.47
2023-04-27T03:12:38.263Z,7.56
2023-04-27T03:13:38.210Z,7.59
2023-04-27T03:14:38.196Z,7.62
2023-04-27T03:15:38.176Z,7.60
2023-04-27T03:16:38.230Z,7.53
2023-04-27T03:17:38.251Z,7.62
2023-04-27T03:18:38.235Z,7.72
2023-04-27T03:19:38.193Z,7.53
2023-04-27T03:20:38.203Z,7.59
2023-04-27T03:21:38.162Z,7.49
2023-04-27T03:22:38.203Z,7.31
2023-04-27T03:23:38.143Z,7.37
2023-04-27T03:24:38.129Z,7.31
2023-04-27T03:25:38.121Z,7.40
2023-04-27T03:26:38.116Z,7.60
2023-04-27T03:27:38.156Z,7.66
2023-04-27T03:28:38.130Z,7.69
2023-04-27T03:29:38.144Z,7.67
2023-04-27T03:30:38.190Z,7.60
2023-04-27T03:31:38.159Z,7.62
2023-04-27T03:32:38.113Z,7.77
2023-04-27T03:33:38.157Z,7.79
2023-04-27T03:34:38.134Z,7.56
2023-04-27T03:35:38.120Z,7.75
2023-04-27T03:36:38.077Z,7.72
2023-04-27T03:37:38.143Z,7.71
2023-04-27T03:38:38.142Z,7.66
2023-04-27T03:39:38.111Z,7.72
2023-04-27T03:40:38.082Z,7.63
2023-04-27T03:41:38.141Z,7.60
2023-04-27T03:42:38.029Z,7.62
2023-04-27T03:43:38.080Z,7.71
2023-04-27T03:44:38.012Z,7.66
2023-04-27T03:45:38.033Z,7.78
2023-04-27T03:46:38.057Z,7.78
2023-04-27T03:47:38.040Z,7.63
2023-04-27T03:48:37.992Z,7.62
2023-04-27T03:49:38.051Z,7.74
2023-04-27T03:50:37.964Z,7.60
2023-04-27T03:51:37.991Z,7.53
2023-04-27T03:52:37.961Z,7.56
2023-04-27T03:53:38.079Z,7.42
2023-04-27T03:54:38.985Z,7.41
2023-04-27T03:55:37.973Z,7.40
2023-04-27T03:56:37.937Z,7.35
2023-04-27T03:57:37.985Z,7.26
2023-04-27T03:58:37.922Z,7.23
2023-04-27T03:59:37.926Z,7.23
2023-04-27T04:00:37.944Z,7.08
2023-04-27T04:01:37.941Z,7.09
2023-04-27T04:02:38.033Z,7.04
2023-04-27T04:03:38.031Z,6.90
2023-04-27T04:04:38.103Z,6.90
2023-04-27T04:05:37.916Z,6.90
2023-04-27T04:06:37.875Z,6.71
2023-04-27T04:07:37.886Z,6.65
2023-04-27T04:08:37.901Z,6.72
2023-04-27T04:09:37.892Z,6.76
2023-04-27T04:10:37.899Z,6.80
2023-04-27T04:11:37.907Z,6.66
2023-04-27T04:12:37.878Z,6.54
2023-04-27T04:13:37.837Z,6.69
2023-04-27T04:14:37.827Z,6.59
2023-04-27T04:15:37.882Z,6.46
2023-04-27T04:16:37.863Z,6.53
2023-04-27T04:17:37.851Z,6.63
2023-04-27T04:18:37.888Z,6.62
2023-04-27T04:19:37.824Z,6.54
2023-04-27T04:20:37.822Z,6.44
2023-04-27T04:21:37.782Z,6.56
2023-04-27T04:22:37.814Z,6.53
2023-04-27T04:23:37.777Z,6.54
2023-04-27T04:24:37.796Z,6.38
2023-04-27T04:25:37.800Z,6.50
2023-04-27T04:26:37.813Z,6.51
2023-04-27T04:27:37.745Z,6.62
2023-04-27T04:28:37.763Z,6.69
2023-04-27T04:29:37.733Z,6.66
2023-04-27T04:30:37.743Z,6.72
2023-04-27T04:31:37.806Z,6.71
2023-04-27T04:32:38.029Z,6.68
2023-04-27T04:33:37.937Z,6.84
2023-04-27T04:34:37.724Z,6.69
2023-04-27T04:35:37.741Z,6.58
2023-04-27T04:36:38.044Z,6.63
2023-04-27T04:37:37.748Z,6.43
2023-04-27T04:38:37.698Z,6.28
2023-04-27T04:39:37.716Z,6.10
2023-04-27T04:40:37.708Z,6.25
2023-04-27T04:41:37.683Z,6.44
2023-04-27T04:42:37.683Z,6.58
2023-04-27T04:43:37.665Z,6.32
2023-04-27T04:44:37.666Z,6.26
2023-04-27T04:45:37.638Z,6.19
2023-04-27T04:46:37.810Z,6.21
2023-04-27T04:47:37.694Z,6.06
2023-04-27T04:48:37.668Z,6.00
2023-04-27T04:49:37.650Z,5.91
2023-04-27T04:50:37.651Z,6.11
2023-04-27T04:51:37.611Z,6.04
2023-04-27T04:52:37.609Z,6.11
2023-04-27T04:53:37.604Z,6.11
2023-04-27T04:54:37.608Z,6.21
2023-04-27T04:55:37.669Z,6.22
2023-04-27T04:56:37.594Z,6.19
2023-04-27T04:57:37.618Z,6.30
2023-04-27T04:58:37.638Z,6.28
2023-04-27T04:59:37.563Z,6.38
2023-04-27T05:00:37.586Z,6.38
2023-04-27T05:01:37.698Z,6.22
2023-04-27T05:02:37.686Z,6.22
2023-04-27T05:03:37.807Z,6.30
2023-04-27T05:04:37.696Z,6.43
2023-04-27T05:05:37.565Z,6.38
2023-04-27T05:06:37.555Z,6.35
2023-04-27T05:07:37.543Z,6.48
2023-04-27T05:08:37.585Z,6.66
2023-04-27T05:09:37.559Z,6.61
2023-04-27T05:10:37.518Z,6.61
2023-04-27T05:11:37.532Z,6.54
2023-04-27T05:12:37.586Z,6.47
2023-04-27T05:13:37.519Z,6.48
2023-04-27T05:14:37.495Z,6.54
2023-04-27T05:15:37.507Z,6.66
2023-04-27T05:16:37.710Z,6.54
2023-04-27T05:17:37.530Z,6.72
2023-04-27T05:18:37.530Z,6.68
2023-04-27T05:19:37.470Z,6.68
2023-04-27T05:20:37.445Z,6.65
2023-04-27T05:21:37.466Z,6.73
2023-04-27T05:22:37.525Z,6.76
2023-04-27T05:23:37.478Z,6.94
2023-04-27T05:24:37.479Z,7.01
2023-04-27T05:25:37.423Z,6.99
2023-04-27T05:26:37.423Z,7.13
2023-04-27T05:27:37.446Z,7.26
2023-04-27T05:28:37.408Z,7.34
2023-04-27T05:29:37.714Z,7.32
2023-04-27T05:30:37.448Z,7.41
2023-04-27T05:31:37.472Z,7.50
2023-04-27T05:32:37.527Z,7.62
2023-04-27T05:33:37.533Z,7.69
2023-04-27T05:34:37.349Z,7.63
2023-04-27T05:35:37.377Z,7.63
2023-04-27T05:36:37.372Z,7.53
2023-04-27T05:37:37.363Z,7.31
2023-04-27T05:38:37.365Z,7.26
2023-04-27T05:39:37.343Z,7.38
2023-04-27T05:40:37.334Z,7.58
2023-04-27T05:41:37.337Z,7.78
2023-04-27T05:42:37.356Z,7.87
2023-04-27T05:43:37.317Z,8.02
2023-04-27T05:44:37.291Z,8.18
2023-04-27T05:45:37.386Z,8.22
2023-04-27T05:46:38.794Z,8.18
2023-04-27T05:47:38.345Z,8.14
2023-04-27T05:48:37.277Z,8.32
2023-04-27T05:49:37.358Z,8.40
2023-04-27T05:50:37.294Z,8.58
2023-04-27T05:51:37.281Z,8.75
2023-04-27T05:52:38.325Z,8.97
2023-04-27T05:53:37.299Z,8.93
2023-04-27T05:54:37.329Z,9.05
2023-04-27T05:55:37.316Z,9.12
2023-04-27T05:56:37.237Z,9.21
2023-04-27T05:57:37.230Z,9.13
2023-04-27T05:58:37.245Z,8.71
2023-04-27T05:59:37.217Z,8.42
2023-04-27T06:00:37.225Z,8.30
2023-04-27T06:01:37.208Z,8.29
2023-04-27T06:02:37.316Z,8.35
2023-04-27T06:03:37.319Z,8.22
2023-04-27T06:04:37.310Z,8.18
2023-04-27T06:05:37.270Z,8.17
2023-04-27T06:06:37.175Z,8.17
2023-04-27T06:07:37.186Z,8.22
2023-04-27T06:08:37.190Z,8.32
2023-04-27T06:09:37.290Z,8.20
2023-04-27T06:10:38.207Z,8.11
2023-04-27T06:11:37.170Z,8.22
2023-04-27T06:12:37.151Z,8.22
2023-04-27T06:13:37.163Z,8.36
2023-04-27T06:14:37.111Z,8.12
2023-04-27T06:15:37.192Z,8.17
2023-04-27T06:16:37.108Z,8.32
2023-04-27T06:17:38.172Z,8.18
2023-04-27T06:18:37.136Z,8.26
2023-04-27T06:19:37.218Z,8.26
2023-04-27T06:20:37.088Z,8.42
2023-04-27T06:21:37.111Z,8.30
2023-04-27T06:22:37.089Z,8.30
2023-04-27T06:23:37.077Z,8.35
2023-04-27T06:24:37.065Z,8.45
2023-04-27T06:25:37.075Z,8.47
2023-04-27T06:26:37.060Z,8.35
2023-04-27T06:27:37.085Z,8.48
2023-04-27T06:28:37.058Z,8.68
2023-04-27T06:29:37.057Z,8.60
2023-04-27T06:30:38.287Z,8.62
2023-04-27T06:31:38.063Z,8.68
2023-04-27T06:32:37.066Z,8.76
2023-04-27T06:33:37.026Z,8.99
2023-04-27T06:34:36.994Z,8.91
2023-04-27T06:35:37.017Z,8.87
2023-04-27T06:36:36.975Z,9.01
2023-04-27T06:37:36.989Z,8.96
2023-04-27T06:38:36.999Z,8.93
2023-04-27T06:39:37.000Z,9.21
2023-04-27T06:40:37.005Z,9.04
2023-04-27T06:41:36.986Z,9.16
2023-04-27T06:42:36.950Z,9.48
2023-04-27T06:43:36.986Z,9.52
2023-04-27T06:44:36.994Z,9.20
2023-04-27T06:45:36.939Z,9.24
2023-04-27T06:46:37.015Z,9.38
2023-04-27T06:47:36.907Z,9.52
2023-04-27T06:48:36.927Z,9.58
2023-04-27T06:49:36.908Z,9.61
2023-04-27T06:50:36.946Z,9.76
2023-04-27T06:51:36.925Z,9.86
2023-04-27T06:52:36.903Z,9.94
2023-04-27T06:53:36.943Z,9.71
2023-04-27T06:54:36.905Z,9.73
2023-04-27T06:55:36.914Z,9.52
2023-04-27T06:56:36.900Z,9.56
2023-04-27T06:57:36.946Z,9.53
2023-04-27T06:58:36.850Z,9.57
2023-04-27T06:59:36.866Z,9.58
2023-04-27T07:00:36.859Z,9.91
2023-04-27T07:01:36.926Z,9.58
2023-04-27T07:02:36.998Z,9.67
2023-04-27T07:03:37.076Z,9.57
2023-04-27T07:04:36.870Z,9.66
2023-04-27T07:05:36.908Z,9.68
2023-04-27T07:06:36.810Z,9.97
2023-04-27T07:07:36.886Z,10.10
2023-04-27T07:08:36.894Z,10.21
2023-04-27T07:09:36.818Z,10.24
2023-04-27T07:10:36.784Z,10.17
2023-04-27T07:11:36.781Z,10.14
2023-04-27T07:12:36.797Z,10.19
2023-04-27T07:13:36.797Z,10.15
2023-04-27T07:14:36.759Z,10.32
2023-04-27T07:15:36.962Z,10.42
2023-04-27T07:16:36.950Z,10.70
2023-04-27T07:18:11.756Z,10.46
2023-04-27T07:19:11.896Z,10.28
2023-04-27T07:20:11.780Z,10.44
2023-04-27T07:21:14.779Z,10.58
2023-04-27T07:22:13.766Z,10.63
2023-04-27T07:22:36.826Z,10.63
2023-04-27T07:24:14.677Z,10.77
2023-04-27T07:24:36.853Z,10.73
2023-04-27T07:26:11.723Z,10.98
2023-04-27T07:27:11.724Z,10.92
2023-04-27T07:28:11.414Z,11.02
2023-04-27T07:29:26.377Z,11.31
2023-04-27T07:29:37.808Z,11.47
2023-04-27T07:31:12.790Z,11.28
2023-04-27T07:31:36.868Z,11.13
2023-04-27T07:33:11.967Z,11.07
2023-04-27T07:34:16.706Z,11.25
2023-04-27T07:34:48.943Z,11.31
2023-04-27T07:40:36.891Z,10.76
2023-04-27T07:41:38.582Z,10.78
2023-04-27T07:42:37.922Z,11.07
2023-04-27T07:43:37.906Z,11.20
2023-04-27T07:44:37.891Z,10.76
2023-04-27T07:45:37.911Z,10.81
2023-04-27T07:46:37.853Z,10.92
2023-04-27T07:47:37.922Z,11.07
2023-04-27T07:48:37.850Z,10.96
2023-04-27T07:49:37.866Z,11.19
2023-04-27T07:50:37.833Z,11.20
2023-04-27T07:51:37.847Z,11.28
2023-04-27T07:52:37.887Z,11.21
2023-04-27T07:53:37.807Z,11.25
2023-04-27T07:54:37.821Z,11.25
2023-04-27T07:55:37.808Z,11.16
2023-04-27T07:56:37.824Z,11.27
2023-04-27T07:57:37.849Z,11.74
2023-04-27T07:58:37.796Z,11.74
2023-04-27T07:59:37.769Z,11.74
2023-04-27T08:00:37.877Z,11.94
2023-04-27T08:01:37.812Z,11.71
2023-04-27T08:02:37.900Z,11.75
2023-04-27T08:03:38.112Z,12.11
2023-04-27T08:04:38.235Z,12.42
2023-04-27T08:05:37.842Z,12.56
2023-04-27T08:06:38.258Z,13.54
2023-04-27T08:07:44.116Z,14.13
2023-04-27T08:08:39.745Z,14.53
2023-04-27T08:09:37.721Z,16.38
2023-04-27T08:10:37.703Z,16.85
2023-04-27T08:11:37.730Z,16.01
2023-04-27T08:12:37.735Z,16.34
2023-04-27T08:13:37.723Z,16.09
2023-04-27T08:14:37.678Z,15.31
2023-04-27T08:15:37.702Z,14.68
2023-04-27T08:16:37.850Z,15.12
2023-04-27T08:17:37.691Z,16.78
2023-04-27T08:18:37.730Z,18.00
2023-04-27T08:19:37.710Z,18.70
2023-04-27T08:20:37.633Z,17.94
2023-04-27T08:21:37.685Z,17.50
2023-04-27T08:22:37.638Z,16.40
2023-04-27T08:23:37.647Z,15.94
2023-04-27T08:24:37.650Z,15.70
2023-04-27T08:25:37.663Z,16.48
2023-04-27T08:26:37.641Z,17.92
2023-04-27T08:27:37.617Z,18.24
2023-04-27T08:28:37.656Z,17.57
2023-04-27T08:29:37.602Z,16.96
2023-04-27T08:30:37.623Z,16.16
2023-04-27T08:31:37.723Z,16.92
2023-04-27T08:32:37.764Z,16.45
2023-04-27T08:33:37.587Z,16.44
2023-04-27T08:34:37.604Z,17.08
2023-04-27T08:35:37.714Z,16.68
2023-04-27T08:36:37.705Z,16.60
2023-04-27T08:37:37.557Z,16.58
2023-04-27T08:38:37.569Z,16.90
2023-04-27T08:39:37.594Z,16.35
2023-04-27T08:40:37.522Z,16.33
2023-04-27T08:41:37.681Z,16.44
2023-04-27T08:42:37.485Z,16.99
2023-04-27T08:43:37.522Z,16.71
2023-04-27T08:44:38.599Z,17.13
2023-04-27T08:45:37.487Z,16.96
2023-04-27T08:46:37.515Z,17.10
2023-04-27T08:47:43.279Z,17.18
2023-04-27T08:48:39.540Z,17.48
2023-04-27T08:49:37.602Z,17.33
2023-04-27T08:50:37.501Z,16.90
2023-04-27T08:51:37.847Z,17.79
2023-04-27T08:52:37.736Z,17.50
2023-04-27T08:53:37.578Z,17.55
2023-04-27T08:54:37.549Z,17.85
2023-04-27T08:55:37.456Z,18.31
2023-04-27T08:56:37.432Z,18.44
2023-04-27T08:57:37.500Z,18.80
2023-04-27T08:58:37.412Z,18.28
2023-04-27T08:59:37.422Z,17.64
2023-04-27T09:00:37.385Z,17.41
2023-04-27T09:01:37.580Z,18.12
2023-04-27T09:02:37.481Z,17.66
2023-04-27T09:03:37.552Z,17.55
2023-04-27T09:04:37.637Z,18.27
2023-04-27T09:05:37.456Z,18.25
2023-04-27T09:06:37.454Z,18.10
2023-04-27T09:07:37.398Z,18.02
2023-04-27T09:08:37.435Z,17.69
2023-04-27T09:09:37.355Z,18.15
2023-04-27T09:10:37.343Z,19.31
2023-04-27T09:11:37.361Z,18.62
2023-04-27T09:12:37.390Z,18.44
2023-04-27T09:13:37.327Z,18.92
2023-04-27T09:14:37.974Z,18.77
2023-04-27T09:15:37.402Z,19.17
2023-04-27T09:16:37.458Z,20.13
2023-04-27T09:17:37.338Z,19.75
2023-04-27T09:18:37.323Z,20.16
2023-04-27T09:19:37.376Z,19.72
2023-04-27T09:20:37.330Z,19.87
2023-04-27T09:21:37.310Z,19.42
2023-04-27T09:22:37.269Z,18.59
2023-04-27T09:23:37.488Z,18.72
2023-04-27T09:27:20.468Z,18.99
2023-04-27T09:28:21.792Z,20.28
2023-04-27T09:29:57.672Z,19.63
2023-04-27T09:30:22.648Z,18.47
2023-04-27T09:31:21.663Z,17.23
2023-04-27T09:32:21.762Z,16.22
2023-04-27T09:33:21.530Z,16.58
2023-04-27T09:34:21.532Z,16.80
2023-04-27T09:35:21.817Z,16.90
2023-04-27T09:36:21.732Z,16.50
2023-04-27T09:37:21.531Z,16.25
2023-04-27T09:38:21.579Z,16.48
2023-04-27T09:39:21.762Z,16.92
2023-04-27T09:40:21.509Z,17.06
2023-04-27T09:41:21.807Z,16.37
2023-04-27T09:42:21.689Z,15.79
2023-04-27T09:43:21.599Z,16.38
2023-04-27T09:44:21.565Z,17.06
2023-04-27T09:45:21.611Z,16.56
2023-04-27T09:46:21.628Z,16.44
2023-04-27T09:47:21.665Z,16.37
2023-04-27T09:48:21.550Z,16.71
2023-04-27T09:49:21.758Z,16.15
2023-04-27T09:50:21.461Z,15.60
2023-04-27T09:51:21.475Z,15.67
2023-04-27T09:52:21.568Z,16.09
2023-04-27T09:53:21.595Z,16.42
2023-04-27T09:54:21.592Z,16.92
2023-04-27T09:55:21.512Z,17.13
2023-04-27T09:56:22.409Z,17.84
2023-04-27T09:57:21.418Z,18.54
2023-04-27T09:58:21.404Z,18.82
2023-04-27T09:59:21.437Z,18.79
2023-04-27T10:00:21.410Z,19.91
2023-04-27T10:01:21.469Z,20.24
2023-04-27T10:02:25.135Z,20.35
2023-04-27T10:03:23.243Z,20.13
2023-04-27T10:04:22.001Z,21.44
2023-04-27T10:05:21.656Z,22.54
2023-04-27T10:06:21.490Z,23.46
2023-04-27T10:07:21.486Z,22.90
2023-04-27T10:08:21.410Z,23.53
2023-04-27T10:09:21.951Z,23.40
2023-04-27T10:10:21.629Z,23.76
2023-04-27T10:11:21.344Z,23.67
2023-04-27T10:12:21.426Z,24.63
2023-04-27T10:13:21.416Z,23.14
2023-04-27T10:14:21.594Z,22.22
2023-04-27T10:15:21.353Z,22.62
2023-04-27T10:16:21.535Z,23.11
2023-04-27T10:17:21.263Z,21.92
2023-04-27T10:18:21.432Z,21.54
2023-04-27T10:19:21.345Z,21.36
2023-04-27T10:20:21.893Z,21.32
2023-04-27T10:21:23.188Z,20.18
2023-04-27T10:22:21.301Z,19.47
2023-04-27T10:23:21.399Z,18.17
2023-04-27T10:24:21.325Z,17.30
2023-04-27T10:25:21.278Z,16.75
2023-04-27T10:26:21.216Z,17.38
2023-04-27T10:27:21.181Z,17.57
2023-04-27T10:28:21.207Z,18.25
2023-04-27T10:29:21.187Z,18.98
2023-04-27T10:30:21.221Z,19.50
2023-04-27T10:31:21.192Z,20.03
2023-04-27T10:32:21.161Z,20.99
2023-04-27T10:33:21.163Z,22.10
2023-04-27T10:34:21.596Z,22.97
2023-04-27T10:35:22.175Z,21.45
2023-04-27T10:36:21.130Z,19.95
2023-04-27T10:37:21.197Z,20.09
2023-04-27T10:38:21.314Z,20.81
2023-04-27T10:39:25.578Z,22.38
2023-04-27T10:40:22.111Z,23.90
2023-04-27T10:41:21.202Z,24.27
2023-04-27T10:42:21.131Z,23.09
2023-04-27T10:43:21.055Z,23.35
2023-04-27T10:44:21.059Z,23.32
2023-04-27T10:45:21.225Z,20.98
2023-04-27T10:46:21.115Z,19.98
2023-04-27T10:47:21.064Z,19.28
2023-04-27T10:48:21.056Z,20.38
2023-04-27T10:49:21.960Z,21.60
2023-04-27T10:50:21.133Z,22.10
2023-04-27T10:51:22.159Z,23.01
2023-04-27T10:52:21.073Z,23.26
2023-04-27T10:53:21.076Z,22.67
2023-04-27T10:54:21.024Z,23.43
2023-04-27T10:55:21.020Z,23.20
2023-04-27T10:56:21.036Z,22.20
2023-04-27T10:57:21.034Z,21.61
2023-04-27T10:58:20.982Z,21.79
2023-04-27T10:59:20.986Z,21.99
2023-04-27T11:00:20.971Z,22.34
2023-04-27T11:01:20.995Z,23.04
2023-04-27T11:02:21.023Z,23.77
2023-04-27T11:03:21.064Z,25.17
2023-04-27T11:04:21.074Z,26.09
2023-04-27T11:05:21.021Z,25.44
2023-04-27T11:06:21.333Z,23.42
2023-04-27T11:07:21.148Z,23.05
2023-04-27T11:08:22.082Z,21.95
2023-04-27T11:09:21.281Z,21.32
2023-04-27T11:10:21.046Z,20.18
2023-04-27T11:11:20.988Z,18.98
2023-04-27T11:12:20.887Z,18.31
2023-04-27T11:13:20.913Z,18.25
2023-04-27T11:14:20.932Z,19.54
2023-04-27T11:15:20.915Z,20.59
2023-04-27T11:16:21.019Z,21.23
2023-04-27T11:17:20.896Z,22.50
2023-04-27T11:18:20.924Z,23.19
2023-04-27T11:19:20.867Z,22.69
2023-04-27T11:20:20.879Z,22.75
2023-04-27T11:21:20.855Z,21.91
2023-04-27T11:22:20.825Z,22.43
2023-04-27T11:23:20.833Z,23.11
2023-04-27T11:24:20.823Z,23.64
2023-04-27T11:25:20.837Z,23.68
2023-04-27T11:26:20.814Z,23.46
2023-04-27T11:27:20.772Z,22.78
2023-04-27T11:28:20.843Z,22.39
2023-04-27T11:29:20.779Z,22.32
2023-04-27T11:30:20.795Z,22.84
2023-04-27T11:31:20.806Z,23.45
2023-04-27T11:32:20.751Z,23.92
2023-04-27T11:33:20.821Z,23.86
2023-04-27T11:34:20.774Z,24.57
2023-04-27T11:35:20.746Z,24.77
2023-04-27T11:36:20.721Z,24.49
2023-04-27T11:37:20.741Z,24.37
2023-04-27T11:38:20.843Z,24.57
2023-04-27T11:39:20.794Z,25.67
2023-04-27T11:40:22.680Z,24.91
2023-04-27T11:41:20.831Z,22.43
2023-04-27T11:42:21.097Z,21.85
2023-04-27T11:43:21.278Z,21.54
2023-04-27T11:44:20.880Z,20.66
2023-04-27T11:45:21.149Z,20.00
2023-04-27T11:46:23.461Z,20.86
2023-04-27T11:47:21.318Z,20.87
2023-04-27T11:48:20.865Z,21.69
2023-04-27T11:49:22.099Z,22.19
2023-04-27T11:50:20.903Z,21.57
2023-04-27T11:51:21.553Z,21.64
2023-04-27T11:52:20.990Z,22.93
2023-04-27T11:53:21.022Z,22.65
2023-04-27T11:54:20.834Z,23.68
2023-04-27T11:55:20.735Z,23.60
2023-04-27T11:56:20.861Z,22.69
2023-04-27T11:57:20.677Z,21.26
2023-04-27T11:58:20.631Z,22.29
2023-04-27T11:59:20.603Z,23.08
2023-04-27T12:00:20.596Z,22.87
2023-04-27T12:01:27.718Z,22.75
2023-04-27T12:02:22.799Z,22.90
2023-04-27T12:03:21.804Z,23.07
2023-04-27T12:04:20.793Z,22.74
2023-04-27T12:05:20.626Z,22.20
2023-04-27T12:06:32.229Z,22.69
2023-04-27T12:07:22.563Z,22.44
2023-04-27T12:08:20.995Z,22.19
2023-04-27T12:09:20.590Z,22.93
2023-04-27T12:10:20.539Z,22.52
2023-04-27T12:11:20.852Z,22.28
2023-04-27T12:12:20.516Z,22.94
2023-04-27T12:13:20.525Z,23.38
2023-04-27T12:14:20.557Z,23.97
2023-04-27T12:15:20.543Z,24.47
2023-04-27T12:16:20.610Z,23.97
2023-04-27T12:17:20.560Z,24.01
2023-04-27T12:18:20.498Z,22.93
2023-04-27T12:19:20.547Z,22.74
2023-04-27T12:20:20.493Z,23.53
2023-04-27T12:21:20.650Z,23.40
2023-04-27T12:22:20.479Z,22.19
2023-04-27T12:23:20.508Z,21.48
2023-04-27T12:24:20.458Z,22.09
2023-04-27T12:25:20.429Z,23.19
2023-04-27T12:26:20.471Z,23.72
2023-04-27T12:27:20.441Z,24.02
2023-04-27T12:28:20.433Z,24.20
2023-04-27T12:29:20.437Z,22.82
2023-04-27T12:30:20.421Z,23.09
2023-04-27T12:31:20.443Z,23.32
2023-04-27T12:32:21.116Z,23.49
2023-04-27T12:33:21.511Z,22.37
2023-04-27T12:34:20.407Z,21.74
2023-04-27T12:35:53.938Z,21.09
2023-04-27T12:36:20.452Z,22.07
2023-04-27T12:37:53.862Z,22.47
2023-04-27T12:38:56.373Z,21.78
2023-04-27T12:39:20.485Z,22.14
2023-04-27T12:40:56.364Z,21.66
2023-04-27T12:41:20.418Z,20.76
2023-04-27T12:42:55.282Z,20.31
2023-04-27T12:43:56.479Z,20.65
2023-04-27T12:44:20.381Z,21.50
2023-04-27T12:45:54.866Z,22.27
2023-04-27T12:46:20.613Z,22.46
2023-04-27T12:50:49.733Z,23.65
2023-04-27T12:52:23.761Z,23.77
2023-04-27T12:52:50.840Z,24.20
2023-04-27T12:53:51.016Z,23.97
2023-04-27T12:54:50.851Z,24.42
2023-04-27T12:55:50.829Z,24.19
2023-04-27T12:56:50.786Z,24.35
2023-04-27T12:57:50.917Z,23.98
2023-04-27T12:58:50.919Z,22.67
2023-04-27T12:59:50.895Z,22.27
2023-04-27T13:00:50.792Z,23.01
2023-04-27T13:01:51.433Z,23.75
2023-04-27T13:02:50.901Z,21.83
2023-04-27T13:03:50.945Z,22.27
2023-04-27T13:04:50.778Z,23.11
2023-04-27T13:05:50.713Z,22.84
2023-04-27T13:06:51.356Z,23.55
2023-04-27T13:07:51.015Z,24.10
2023-04-27T13:08:51.545Z,24.10
2023-04-27T13:09:50.686Z,24.02
2023-04-27T13:10:50.731Z,23.77
2023-04-27T13:11:51.308Z,23.58
2023-04-27T13:12:50.828Z,23.20
2023-04-27T13:13:54.505Z,23.42
2023-04-27T13:14:50.701Z,22.75
2023-04-27T13:15:50.736Z,23.50
2023-04-27T13:16:50.692Z,24.13
2023-04-27T13:17:50.654Z,24.69